Time;durP1;ratioP1;P1;durP2;ratioP2;P2;SDS_P1;SDS_P2;PMS_P1;PMS_P2;Temp;Humidity;BMP_temperature;BMP_pressure;BME280_temperature;BME280_humidity;BME280_pressure;Samples;Min_cycle;Max_cycle;Signal;HPM_P1;HPM_P2
2023/07/11 00:01:02;;;;;;;8.93;8.03;;;18.90;1.00;;;;;;8365903;28;20232;-62
2023/07/11 00:05:05;;;;;;;9.70;8.70;;;18.90;1.00;;;;;;8350768;28;20240;-62
2023/07/11 00:09:06;;;;;;;9.60;8.70;;;18.80;1.00;;;;;;8349550;28;20205;-63
2023/07/11 00:13:06;;;;;;;9.73;7.63;;;18.80;30.40;;;;;;8349041;28;20186;-62
2023/07/11 00:17:07;;;;;;;9.67;8.20;;;18.70;56.30;;;;;;8351007;28;20195;-62
2023/07/11 00:21:08;;;;;;;8.83;8.00;;;18.70;96.90;;;;;;8351336;28;20189;-62
2023/07/11 00:25:10;;;;;;;11.53;9.77;;;18.60;99.90;;;;;;8365479;28;20245;-63
2023/07/11 00:29:18;;;;;;;9.60;8.60;;;18.50;99.90;;;;;;8350654;28;20186;-63
2023/07/11 00:33:19;;;;;;;9.60;8.70;;;18.40;99.90;;;;;;8364156;28;20191;-63
2023/07/11 00:37:20;;;;;;;11.17;8.87;;;18.40;99.90;;;;;;8348755;28;20242;-63
2023/07/11 00:41:21;;;;;;;9.97;8.97;;;18.30;99.90;;;;;;8351165;28;20304;-62
2023/07/11 00:46:00;;;;;;;9.83;8.83;;;18.30;1.00;;;;;;8354073;28;20205;-63
2023/07/11 00:50:06;;;;;;;10.00;9.07;;;18.30;1.00;;;;;;8351714;28;20212;-62
2023/07/11 00:54:10;;;;;;;10.40;9.37;;;18.20;1.00;;;;;;8368021;28;20208;-63
2023/07/11 00:58:13;;;;;;;10.20;9.30;;;18.10;38.00;;;;;;8364863;28;20200;-62
2023/07/11 01:02:24;;;;;;;10.73;9.23;;;18.00;99.90;;;;;;8354331;28;20204;-63
2023/07/11 01:06:27;;;;;;;10.47;9.47;;;17.90;99.90;;;;;;8352579;28;20217;-64
2023/07/11 01:10:28;;;;;;;10.17;9.17;;;17.90;99.90;;;;;;8364873;28;20219;-61
2023/07/11 01:14:30;;;;;;;9.93;8.70;;;17.80;99.90;;;;;;8353007;28;20182;-63
2023/07/11 01:18:31;;;;;;;9.47;8.57;;;17.70;99.90;;;;;;8347972;28;20186;-64
2023/07/11 01:22:34;;;;;;;10.67;9.60;;;17.60;99.90;;;;;;8350155;28;20193;-63
2023/07/11 01:26:35;;;;;;;9.17;8.37;;;17.50;99.90;;;;;;8352063;28;20191;-63
2023/07/11 01:30:36;;;;;;;9.20;8.30;;;17.40;99.90;;;;;;8355552;28;20209;-62
2023/07/11 01:34:37;;;;;;;10.10;8.83;;;17.40;1.00;;;;;;8355285;28;20267;-63
2023/07/11 01:38:38;;;;;;;9.10;8.17;;;17.30;99.90;;;;;;8348388;28;20333;-63
2023/07/11 01:42:40;;;;;;;10.17;9.13;;;17.20;1.00;;;;;;8351757;28;20192;-63
2023/07/11 01:46:41;;;;;;;9.23;8.40;;;17.20;1.00;;;;;;8349308;28;20260;-64
2023/07/11 01:50:42;;;;;;;9.53;8.63;;;17.10;99.90;;;;;;8354012;28;20174;-68
2023/07/11 01:54:43;;;;;;;8.83;8.03;;;17.00;99.90;;;;;;8343577;28;20185;-64
2023/07/11 01:58:43;;;;;;;8.77;7.87;;;16.90;99.90;;;;;;8368159;28;20205;-63
2023/07/11 02:02:45;;;;;;;9.10;8.30;;;16.80;99.90;;;;;;8361066;28;20193;-64
2023/07/11 02:06:45;;;;;;;11.37;10.17;;;16.70;1.00;;;;;;8353513;28;20188;-64
2023/07/11 02:10:49;;;;;;;9.83;8.90;;;16.70;99.90;;;;;;8361664;28;20261;-63
2023/07/11 02:14:50;;;;;;;10.47;9.47;;;16.70;99.90;;;;;;8352222;28;20189;-63
2023/07/11 02:18:58;;;;;;;10.63;9.53;;;16.80;99.90;;;;;;8343322;28;20209;-63
2023/07/11 02:23:01;;;;;;;10.60;9.50;;;16.80;99.90;;;;;;8353528;28;20221;-62
2023/07/11 02:27:06;;;;;;;11.37;10.37;;;16.80;99.90;;;;;;8350194;28;20192;-62
2023/07/11 02:31:07;;;;;;;9.80;8.90;;;16.80;99.90;;;;;;8362798;28;20194;-62
2023/07/11 02:35:08;;;;;;;10.27;9.27;;;16.80;99.90;;;;;;8340743;28;20197;-64
2023/07/11 02:39:09;;;;;;;8.90;8.17;;;16.80;1.00;;;;;;8349408;28;20225;-63
2023/07/11 02:43:10;;;;;;;8.70;7.90;;;16.70;99.90;;;;;;8359437;28;20217;-62
2023/07/11 02:47:12;;;;;;;9.13;8.40;;;16.60;72.30;;;;;;8349665;28;20192;-65
2023/07/11 02:51:13;;;;;;;8.20;7.47;;;16.50;99.90;;;;;;8361525;28;20201;-64
2023/07/11 02:55:14;;;;;;;8.43;7.73;;;16.40;99.90;;;;;;8342970;28;20219;-62
2023/07/11 02:59:15;;;;;;;8.67;7.87;;;16.30;99.90;;;;;;8364132;28;20231;-62
2023/07/11 03:03:17;;;;;;;8.37;7.67;;;16.30;99.90;;;;;;8350193;28;20213;-62
2023/07/11 03:07:18;;;;;;;9.17;8.37;;;16.20;99.90;;;;;;8346388;28;20205;-63
2023/07/11 03:11:19;;;;;;;8.97;8.07;;;16.20;99.90;;;;;;8348797;28;20185;-66
2023/07/11 03:15:20;;;;;;;8.70;7.90;;;16.20;41.00;;;;;;8343134;28;20181;-65
2023/07/11 03:19:21;;;;;;;8.80;8.00;;;16.30;99.90;;;;;;8344522;28;20189;-66
2023/07/11 03:23:22;;;;;;;8.83;8.03;;;16.60;1.00;;;;;;8356124;28;20205;-65
2023/07/11 03:27:26;;;;;;;8.60;7.90;;;17.40;1.00;;;;;;8357671;28;20200;-66
2023/07/11 03:31:27;;;;;;;9.87;8.00;;;18.20;99.90;;;;;;8357942;28;20209;-66
2023/07/11 03:35:28;;;;;;;8.70;7.90;;;18.70;99.90;;;;;;8353920;28;20219;-65
2023/07/11 03:39:29;;;;;;;8.30;7.57;;;19.20;1.00;;;;;;8353163;28;20209;-66
2023/07/11 03:43:32;;;;;;;7.13;6.43;;;19.80;99.90;;;;;;8351643;28;20216;-65
2023/07/11 03:47:36;;;;;;;8.23;7.43;;;20.20;99.90;;;;;;8355527;28;20181;-65
2023/07/11 03:51:37;;;;;;;7.90;7.20;;;20.40;99.90;;;;;;8347568;28;20186;-66
2023/07/11 03:55:38;;;;;;;7.67;6.97;;;21.20;87.10;;;;;;8354377;28;20193;-65
2023/07/11 03:59:39;;;;;;;7.43;6.73;;;22.00;1.00;;;;;;8352540;28;20197;-66
2023/07/11 04:03:40;;;;;;;7.87;6.37;;;22.80;1.00;;;;;;8353334;28;20257;-66
2023/07/11 04:07:41;;;;;;;7.30;6.70;;;23.60;1.00;;;;;;8352911;28;20249;-66
2023/07/11 04:11:42;;;;;;;6.57;5.90;;;24.20;1.00;;;;;;8357954;28;20216;-67
2023/07/11 04:15:43;;;;;;;9.63;7.57;;;24.60;1.00;;;;;;8350656;28;20193;-66
2023/07/11 04:19:44;;;;;;;8.30;7.50;;;24.70;1.00;;;;;;8352521;28;20193;-67
2023/07/11 04:23:46;;;;;;;8.77;7.90;;;24.80;1.00;;;;;;8365964;28;20217;-67
2023/07/11 04:27:47;;;;;;;8.23;7.43;;;24.70;1.00;;;;;;8357737;28;20186;-68
2023/07/11 04:31:48;;;;;;;7.77;6.97;;;24.80;1.00;;;;;;8346820;28;20182;-66
2023/07/11 04:35:49;;;;;;;8.67;7.83;;;24.80;1.00;;;;;;8351110;28;20247;-68
2023/07/11 04:39:50;;;;;;;8.70;7.57;;;25.20;1.00;;;;;;8351867;28;20185;-68
2023/07/11 04:43:50;;;;;;;8.17;7.37;;;25.60;1.00;;;;;;8357525;28;20303;-67
2023/07/11 04:47:51;;;;;;;8.87;7.33;;;25.60;1.00;;;;;;8354619;28;20185;-66
2023/07/11 04:51:52;;;;;;;8.00;7.30;;;25.10;1.00;;;;;;8351875;28;20228;-67
2023/07/11 04:55:56;;;;;;;8.23;7.13;;;24.70;1.00;;;;;;8370731;28;20188;-66
2023/07/11 04:59:57;;;;;;;9.37;7.13;;;24.30;1.00;;;;;;8355991;28;20231;-66
2023/07/11 05:03:58;;;;;;;7.87;7.10;;;24.30;1.00;;;;;;8351771;28;20213;-66
2023/07/11 05:07:59;;;;;;;6.30;5.70;;;24.50;1.00;;;;;;8351176;28;20266;-67
2023/07/11 05:12:01;;;;;;;7.87;7.07;;;24.80;1.00;;;;;;8346513;28;20212;-67
2023/07/11 05:16:04;;;;;;;9.53;7.10;;;24.40;1.00;;;;;;8363512;28;20190;-67
2023/07/11 05:20:05;;;;;;;8.23;6.77;;;23.40;1.00;;;;;;8366646;28;20275;-67
2023/07/11 05:24:07;;;;;;;5.97;5.47;;;22.70;1.00;;;;;;8368035;28;20217;-66
2023/07/11 05:28:08;;;;;;;8.10;7.00;;;22.50;1.00;;;;;;8355559;28;20216;-68
2023/07/11 05:32:10;;;;;;;9.17;6.90;;;22.40;1.00;;;;;;8349544;28;20194;-68
2023/07/11 05:40:17;;;;;;;9.13;6.73;;;21.90;1.00;;;;;;8366011;28;20194;-68
2023/07/11 05:44:19;;;;;;;9.03;7.13;;;21.90;1.00;;;;;;8351307;28;20266;-67
2023/07/11 05:48:23;;;;;;;8.53;6.90;;;21.60;1.00;;;;;;8346362;28;20190;-67
2023/07/11 05:52:24;;;;;;;7.00;6.30;;;21.70;1.00;;;;;;8367379;28;20193;-66
2023/07/11 05:56:31;;;;;;;6.50;5.60;;;21.50;1.00;;;;;;8356323;28;20185;-66
2023/07/11 06:00:32;;;;;;;4.17;3.57;;;21.30;1.00;;;;;;8345301;28;20201;-66
2023/07/11 06:04:33;;;;;;;3.97;3.47;;;21.20;1.00;;;;;;8357472;28;20217;-65
2023/07/11 06:08:35;;;;;;;4.93;4.17;;;21.10;1.00;;;;;;8347227;28;20228;-66
2023/07/11 06:12:36;;;;;;;5.47;4.97;;;21.00;1.00;;;;;;8347138;28;20186;-66
2023/07/11 06:16:38;;;;;;;6.00;4.97;;;21.20;1.00;;;;;;8346772;28;20189;-66
2023/07/11 06:20:39;;;;;;;6.83;5.63;;;21.40;1.00;;;;;;8351867;28;20208;-67
2023/07/11 06:24:39;;;;;;;6.10;5.43;;;21.60;1.00;;;;;;8346744;28;20216;-68
2023/07/11 06:28:43;;;;;;;5.10;4.20;;;21.60;1.00;;;;;;8351290;28;20189;-68
2023/07/11 06:32:44;;;;;;;4.87;4.10;;;21.70;1.00;;;;;;8355723;28;20195;-70
2023/07/11 06:36:45;;;;;;;6.10;3.10;;;21.80;1.00;;;;;;8347086;28;20234;-68
2023/07/11 06:41:02;;;;;;;4.20;3.40;;;21.60;1.00;;;;;;8366926;28;20199;-67
2023/07/11 06:45:03;;;;;;;4.10;3.63;;;21.50;1.00;;;;;;8347023;28;20205;-68
2023/07/11 06:49:04;;;;;;;6.00;3.60;;;21.70;1.00;;;;;;8364080;28;20185;-70
2023/07/11 06:53:05;;;;;;;3.90;3.40;;;21.80;1.00;;;;;;8362603;28;20173;-67
2023/07/11 06:57:06;;;;;;;4.13;3.40;;;21.90;1.00;;;;;;8347562;28;20182;-68
2023/07/11 07:01:07;;;;;;;4.37;3.27;;;22.10;1.00;;;;;;8368477;28;20249;-66
2023/07/11 07:05:09;;;;;;;5.87;3.60;;;22.20;1.00;;;;;;8347227;28;20278;-72
2023/07/11 07:09:12;;;;;;;4.37;3.03;;;22.40;1.00;;;;;;8349956;28;20186;-70
2023/07/11 07:13:13;;;;;;;3.87;3.00;;;22.50;1.00;;;;;;8346134;28;20245;-67
2023/07/11 07:17:14;;;;;;;5.47;3.00;;;22.40;1.00;;;;;;8366314;28;20185;-68
2023/07/11 07:21:15;;;;;;;3.30;3.00;;;22.40;1.00;;;;;;8361876;28;20260;-67
2023/07/11 07:25:16;;;;;;;3.60;3.20;;;22.70;1.00;;;;;;8362094;28;20216;-69
2023/07/11 07:29:17;;;;;;;4.63;3.53;;;23.20;1.00;;;;;;8363682;28;20196;-66
2023/07/11 07:33:17;;;;;;;3.80;3.37;;;23.50;99.90;;;;;;8343948;28;20196;-66
2023/07/11 07:37:18;;;;;;;5.80;3.10;;;23.60;99.90;;;;;;8366311;28;20185;-69
2023/07/11 07:41:22;;;;;;;4.27;2.90;;;23.70;99.90;;;;;;8364444;28;20191;-67
2023/07/11 07:45:23;;;;;;;4.67;2.80;;;23.40;99.90;;;;;;8366459;28;20284;-68
2023/07/11 07:49:24;;;;;;;3.30;2.70;;;23.30;99.90;;;;;;8347660;28;20182;-67
2023/07/11 07:53:25;;;;;;;4.77;3.03;;;23.40;99.90;;;;;;8352202;28;20199;-68
2023/07/11 07:57:29;;;;;;;4.00;2.90;;;23.60;99.90;;;;;;8352018;28;20185;-70
2023/07/11 08:01:33;;;;;;;5.97;3.17;;;23.50;99.90;;;;;;8365009;28;20197;-67
2023/07/11 08:05:36;;;;;;;4.20;2.70;;;23.70;1.00;;;;;;8362416;28;20275;-68
2023/07/11 08:09:37;;;;;;;4.50;2.50;;;24.00;99.90;;;;;;8364193;28;20226;-68
2023/07/11 08:13:37;;;;;;;4.53;2.73;;;24.40;99.90;;;;;;8350091;28;20253;-68
2023/07/11 08:17:42;;;;;;;4.90;2.70;;;24.60;99.90;;;;;;8358459;28;20189;-67
2023/07/11 08:21:43;;;;;;;3.00;2.60;;;24.60;99.90;;;;;;8349555;28;20185;-66
2023/07/11 08:25:44;;;;;;;2.77;2.20;;;24.70;99.90;;;;;;8356595;28;20221;-67
2023/07/11 08:29:45;;;;;;;3.47;2.57;;;24.80;99.90;;;;;;8354178;28;20188;-66
2023/07/11 08:33:46;;;;;;;5.60;2.23;;;24.90;99.90;;;;;;8352992;28;20185;-66
2023/07/11 08:37:47;;;;;;;2.43;2.23;;;25.10;99.90;;;;;;8353622;28;20272;-70
2023/07/11 08:41:51;;;;;;;3.27;1.93;;;25.20;99.90;;;;;;8357938;28;20185;-71
2023/07/11 08:45:59;;;;;;;3.17;2.07;;;25.20;99.90;;;;;;8358633;28;20209;-68
2023/07/11 08:50:16;;;;;;;2.63;2.10;;;25.00;99.90;;;;;;8353838;28;20186;-67
2023/07/11 08:54:47;;;;;;;3.20;1.97;;;25.10;99.90;;;;;;8354969;28;20284;-66
2023/07/11 08:58:49;;;;;;;2.93;1.93;;;25.30;99.90;;;;;;8362886;28;20268;-66
2023/07/11 09:03:16;;;;;;;3.73;2.43;;;25.60;99.90;;;;;;8352766;28;20201;-69
2023/07/11 09:07:36;;;;;;;3.27;1.93;;;25.80;99.90;;;;;;8344489;28;20212;-69
2023/07/11 09:11:47;;;;;;;4.13;2.20;;;25.30;99.90;;;;;;8365677;28;20178;-69
2023/07/11 09:15:56;;;;;;;4.60;2.27;;;25.00;99.90;;;;;;8364856;28;20178;-68
2023/07/11 09:20:34;;;;;;;2.80;2.03;;;25.00;99.90;;;;;;8353545;28;20199;-68
2023/07/11 09:24:42;;;;;;;3.88;2.40;;;25.40;99.90;;;;;;8356465;28;20248;-66
2023/07/11 09:28:44;;;;;;;3.97;2.00;;;25.90;99.90;;;;;;8363386;28;20205;-66
2023/07/11 09:32:46;;;;;;;2.67;1.92;;;26.30;99.90;;;;;;8364699;28;20251;-68
2023/07/11 09:36:48;;;;;;;2.47;1.80;;;26.70;99.90;;;;;;8350394;28;20280;-66
2023/07/11 09:41:11;;;;;;;4.80;1.90;;;26.70;99.90;;;;;;8348692;28;20178;-68
2023/07/11 09:45:14;;;;;;;3.28;1.75;;;27.20;99.90;;;;;;8353106;28;20216;-70
2023/07/11 09:49:23;;;;;;;4.45;2.10;;;27.20;99.90;;;;;;8365246;28;20173;-68
2023/07/11 09:53:26;;;;;;;4.93;2.10;;;27.00;99.90;;;;;;8365246;28;20202;-66
2023/07/11 09:57:27;;;;;;;2.85;2.10;;;26.80;99.90;;;;;;8347865;28;20186;-67
2023/07/11 10:01:33;;;;;;;3.63;1.70;;;26.90;99.90;;;;;;8348227;28;20198;-67
2023/07/11 10:05:34;;;;;;;5.75;2.10;;;26.80;99.90;;;;;;8365987;28;20228;-68
2023/07/11 10:09:44;;;;;;;4.00;2.10;;;26.80;99.90;;;;;;8354578;28;20185;-66
2023/07/11 10:13:45;;;;;;;5.70;2.20;;;26.80;99.90;;;;;;8347384;28;20216;-66
2023/07/11 10:17:46;;;;;;;2.90;2.22;;;26.70;99.90;;;;;;8351644;28;20189;-68
2023/07/11 10:21:50;;;;;;;2.17;1.90;;;26.90;99.90;;;;;;8366079;28;20181;-66
2023/07/11 10:25:53;;;;;;;2.78;1.80;;;27.50;99.90;;;;;;8363222;28;20227;-67
2023/07/11 10:29:57;;;;;;;5.65;1.90;;;28.00;99.90;;;;;;8350886;28;20189;-67
2023/07/11 10:34:15;;;;;;;3.05;1.70;;;28.20;99.90;;;;;;8364215;28;20181;-67
2023/07/11 10:38:27;;;;;;;3.00;1.90;;;28.30;99.90;;;;;;8365313;28;20193;-66
2023/07/11 10:42:39;;;;;;;4.45;2.15;;;28.10;99.90;;;;;;8349647;28;20177;-68
2023/07/11 10:46:49;;;;;;;4.60;2.08;;;27.30;99.90;;;;;;8347278;28;20228;-66
2023/07/11 10:51:09;;;;;;;3.10;2.00;;;27.00;99.90;;;;;;8352171;28;20181;-66
2023/07/11 10:55:26;;;;;;;2.60;1.50;;;27.10;99.90;;;;;;8346952;28;20182;-68
2023/07/11 10:59:30;;;;;;;3.15;1.90;;;27.10;99.90;;;;;;8365761;28;20193;-67
2023/07/11 11:03:57;;;;;;;4.07;2.10;;;26.80;99.90;;;;;;8363211;28;20213;-70
2023/07/11 11:08:06;;;;;;;4.13;2.20;;;26.80;99.90;;;;;;8344924;28;20196;-67
2023/07/11 11:12:48;;;;;;;4.47;2.10;;;26.80;99.90;;;;;;8360216;28;20178;-67
2023/07/11 11:17:02;;;;;;;7.20;2.47;;;26.90;99.90;;;;;;8347178;28;20203;-69
2023/07/11 11:21:18;;;;;;;4.38;2.65;;;27.10;99.90;;;;;;8346932;28;20170;-67
2023/07/11 11:25:33;;;;;;;7.65;2.30;;;27.30;99.90;;;;;;8348103;28;20221;-67
2023/07/11 11:29:54;;;;;;;3.75;2.30;;;27.10;99.90;;;;;;8346928;28;20272;-69
2023/07/11 11:34:19;;;;;;;3.50;2.20;;;27.30;99.90;;;;;;8331079;28;20193;-66
2023/07/11 11:38:20;;;;;;;4.13;2.33;;;27.30;99.90;;;;;;8364792;28;20418;-67
2023/07/11 11:42:33;;;;;;;3.90;2.15;;;27.60;99.90;;;;;;8363900;28;20190;-68
2023/07/11 11:46:43;;;;;;;4.18;2.20;;;27.70;99.90;;;;;;8358366;28;20209;-66
2023/07/11 11:50:46;;;;;;;3.88;2.30;;;27.90;99.90;;;;;;8360642;28;20192;-67
2023/07/11 11:54:48;;;;;;;5.00;2.40;;;28.30;99.90;;;;;;8359674;28;20178;-72
2023/07/11 11:59:03;;;;;;;1.92;1.60;;;28.50;99.90;;;;;;8371037;28;20212;-68
2023/07/11 12:03:17;;;;;;;4.00;2.28;;;28.60;99.90;;;;;;8355667;28;20207;-68
2023/07/11 12:07:26;;;;;;;3.13;2.13;;;28.50;99.90;;;;;;8351674;28;20182;-66
2023/07/11 12:11:31;;;;;;;3.38;1.98;;;28.40;99.90;;;;;;8353518;28;20209;-67
2023/07/11 12:15:38;;;;;;;2.60;1.88;;;28.40;99.90;;;;;;8350530;28;20182;-68
2023/07/11 12:19:45;;;;;;;4.45;2.00;;;28.60;99.90;;;;;;8351784;28;20216;-66
2023/07/11 12:23:48;;;;;;;2.65;2.13;;;28.80;99.90;;;;;;8367239;28;20204;-67
2023/07/11 12:28:03;;;;;;;3.78;2.00;;;28.80;99.90;;;;;;8370841;28;20182;-67
2023/07/11 12:32:34;;;;;;;2.47;1.85;;;28.30;99.90;;;;;;8370892;28;20185;-68
2023/07/11 12:36:45;;;;;;;4.75;1.88;;;28.00;99.90;;;;;;8366639;28;20178;-67
2023/07/11 12:41:16;;;;;;;3.05;2.33;;;28.20;99.90;;;;;;8350036;28;20186;-67
2023/07/11 12:45:22;;;;;;;4.00;2.28;;;28.50;99.90;;;;;;8367642;28;20201;-65
2023/07/11 12:49:31;;;;;;;2.03;1.70;;;28.50;99.90;;;;;;8354100;28;20182;-64
2023/07/11 12:53:37;;;;;;;3.45;2.03;;;28.70;99.90;;;;;;8367019;28;20247;-67
2023/07/11 12:57:45;;;;;;;2.85;2.10;;;28.90;99.90;;;;;;8367271;28;20185;-67
2023/07/11 13:01:50;;;;;;;2.63;1.90;;;29.20;99.90;;;;;;8353386;28;20221;-66
2023/07/11 13:05:57;;;;;;;2.80;2.05;;;29.40;99.90;;;;;;8366778;28;20263;-66
2023/07/11 13:10:00;;;;;;;2.53;1.90;;;29.70;99.90;;;;;;8352020;28;20200;-68
2023/07/11 13:14:08;;;;;;;2.45;1.98;;;29.50;99.90;;;;;;8355067;28;20232;-67
2023/07/11 13:18:30;;;;;;;2.42;2.13;;;29.40;99.90;;;;;;8354493;28;20182;-66
2023/07/11 13:22:31;;;;;;;4.22;2.08;;;29.50;99.90;;;;;;8365335;28;20192;-69
2023/07/11 13:26:32;;;;;;;4.90;1.88;;;29.60;99.90;;;;;;8348482;28;20206;-68
2023/07/11 13:30:36;;;;;;;2.92;1.88;;;29.50;99.90;;;;;;8365461;28;20177;-68
2023/07/11 13:34:38;;;;;;;2.35;1.77;;;29.40;99.90;;;;;;8363859;28;20186;-68
2023/07/11 13:38:46;;;;;;;2.45;1.83;;;29.30;99.90;;;;;;8368131;28;20235;-68
2023/07/11 13:42:51;;;;;;;3.45;2.05;;;29.40;99.90;;;;;;8351809;28;20273;-68
2023/07/11 13:46:52;;;;;;;3.47;2.08;;;29.40;99.90;;;;;;8356823;28;20297;-68
2023/07/11 13:51:16;;;;;;;2.38;1.90;;;29.50;99.90;;;;;;8365700;28;20177;-68
2023/07/11 13:55:27;;;;;;;2.55;1.80;;;29.70;99.90;;;;;;8355208;28;20182;-67
2023/07/11 13:59:29;;;;;;;3.65;2.45;;;29.60;99.90;;;;;;8348451;28;20194;-67
2023/07/11 14:03:30;;;;;;;3.08;2.05;;;29.10;99.90;;;;;;8349038;28;20266;-65
2023/07/11 14:07:31;;;;;;;2.97;2.15;;;28.90;99.90;;;;;;8364443;28;20174;-67
2023/07/11 14:11:32;;;;;;;3.03;1.98;;;28.90;99.90;;;;;;8350666;28;20188;-67
2023/07/11 14:15:33;;;;;;;2.50;2.08;;;28.90;99.90;;;;;;8346515;28;20186;-66
2023/07/11 14:19:35;;;;;;;4.03;2.30;;;29.00;99.90;;;;;;8355017;28;20192;-66
2023/07/11 14:23:36;;;;;;;2.67;1.85;;;29.10;99.90;;;;;;8347720;28;20297;-66
2023/07/11 14:27:37;;;;;;;4.03;2.15;;;29.00;99.90;;;;;;8362263;28;20184;-66
2023/07/11 14:31:38;;;;;;;3.22;2.13;;;29.20;99.90;;;;;;8354047;28;20178;-67
2023/07/11 14:35:39;;;;;;;2.88;2.22;;;29.60;99.90;;;;;;8362181;28;20181;-67
2023/07/11 14:39:40;;;;;;;3.25;2.10;;;29.80;99.90;;;;;;8365671;28;20202;-67
2023/07/11 14:43:41;;;;;;;3.38;2.10;;;30.00;99.90;;;;;;8352225;28;20320;-68
2023/07/11 14:47:42;;;;;;;4.38;2.50;;;30.30;99.90;;;;;;8364890;28;20211;-68
2023/07/11 14:51:44;;;;;;;2.88;2.25;;;30.40;99.90;;;;;;8343188;28;20188;-68
2023/07/11 14:55:45;;;;;;;1.90;1.73;;;30.50;99.90;;;;;;8348251;28;20189;-67
2023/07/11 14:59:46;;;;;;;3.58;2.08;;;30.50;99.90;;;;;;8347224;28;20265;-68
2023/07/11 15:03:50;;;;;;;2.58;2.20;;;30.50;99.90;;;;;;8346789;28;20205;-68
2023/07/11 15:07:56;;;;;;;2.60;1.98;;;30.50;99.90;;;;;;8363007;28;20266;-66
2023/07/11 15:11:57;;;;;;;2.08;1.90;;;30.40;99.90;;;;;;8345620;28;20185;-68
2023/07/11 15:15:58;;;;;;;4.13;2.40;;;30.40;99.90;;;;;;8363391;28;20264;-67
2023/07/11 15:19:59;;;;;;;4.30;2.30;;;30.50;99.90;;;;;;8365768;28;20189;-67
2023/07/11 15:24:00;;;;;;;3.25;2.35;;;30.40;99.90;;;;;;8353305;28;20204;-66
2023/07/11 15:28:10;;;;;;;2.67;2.35;;;30.50;99.90;;;;;;8353864;28;20211;-68
2023/07/11 15:32:22;;;;;;;3.85;2.13;;;30.60;99.90;;;;;;8351724;28;20270;-67
2023/07/11 15:36:23;;;;;;;3.70;2.47;;;30.80;99.90;;;;;;8361284;28;20182;-68
2023/07/11 15:40:26;;;;;;;3.90;2.47;;;30.80;99.90;;;;;;8344409;28;20188;-67
2023/07/11 15:44:27;;;;;;;4.00;2.95;;;30.90;99.90;;;;;;8347615;28;20209;-67
2023/07/11 15:48:29;;;;;;;3.90;2.35;;;31.30;99.90;;;;;;8364105;28;20256;-68
2023/07/11 15:52:30;;;;;;;4.35;2.20;;;31.60;99.90;;;;;;8347675;28;20178;-67
2023/07/11 15:56:30;;;;;;;4.53;2.63;;;31.70;99.90;;;;;;8351614;28;20252;-67
2023/07/11 16:00:35;;;;;;;3.13;2.60;;;31.80;99.90;;;;;;8342588;28;20201;-66
2023/07/11 16:04:36;;;;;;;6.28;2.80;;;32.00;99.90;;;;;;8344616;28;20205;-67
2023/07/11 16:08:37;;;;;;;3.30;2.42;;;31.80;99.90;;;;;;8340205;28;20296;-66
2023/07/11 16:12:38;;;;;;;4.35;2.78;;;31.60;99.90;;;;;;8364461;28;20190;-68
2023/07/11 16:16:39;;;;;;;2.92;2.63;;;31.60;99.90;;;;;;8343939;28;20200;-67
2023/07/11 16:20:41;;;;;;;4.05;3.00;;;31.50;99.90;;;;;;8348531;28;20177;-67
2023/07/11 16:24:42;;;;;;;3.85;3.30;;;31.30;99.90;;;;;;8359899;28;20197;-67
2023/07/11 16:28:43;;;;;;;3.65;2.72;;;31.10;99.90;;;;;;8346555;28;20185;-67
2023/07/11 16:32:48;;;;;;;2.78;2.38;;;31.00;99.90;;;;;;8357536;28;20310;-67
2023/07/11 16:36:55;;;;;;;2.97;2.40;;;30.80;99.90;;;;;;8345732;28;20243;-67
2023/07/11 16:41:02;;;;;;;4.80;2.72;;;30.70;99.90;;;;;;8352134;28;20194;-68
2023/07/11 16:45:11;;;;;;;3.25;2.95;;;30.50;99.90;;;;;;8350815;28;20243;-66
2023/07/11 16:49:16;;;;;;;4.95;2.75;;;30.40;99.90;;;;;;8357028;28;20186;-66
2023/07/11 16:53:22;;;;;;;3.95;3.10;;;30.30;99.90;;;;;;8365402;28;20177;-68
2023/07/11 16:57:23;;;;;;;4.45;3.47;;;30.30;99.90;;;;;;8355773;28;20178;-67
2023/07/11 17:01:24;;;;;;;5.13;3.80;;;30.10;99.90;;;;;;8348464;28;20193;-68
2023/07/11 17:05:25;;;;;;;5.20;3.47;;;30.10;99.90;;;;;;8368784;28;20284;-67
2023/07/11 17:09:26;;;;;;;3.20;2.90;;;30.00;99.90;;;;;;8349050;28;20231;-68
2023/07/11 17:13:29;;;;;;;3.85;3.30;;;30.10;99.90;;;;;;8346115;28;20182;-67
2023/07/11 17:17:30;;;;;;;4.00;3.22;;;30.10;99.90;;;;;;8367989;28;20182;-66
2023/07/11 17:21:31;;;;;;;4.80;2.90;;;30.10;99.90;;;;;;8353153;28;20252;-66
2023/07/11 17:25:32;;;;;;;4.50;3.25;;;30.40;99.90;;;;;;8365390;28;20299;-67
2023/07/11 17:29:35;;;;;;;4.68;3.10;;;31.20;99.90;;;;;;8349168;28;20196;-69
2023/07/11 17:33:39;;;;;;;4.20;3.15;;;32.10;99.90;;;;;;8363848;28;20204;-68
2023/07/11 17:37:41;;;;;;;3.47;3.17;;;32.90;99.90;;;;;;8364025;28;20234;-68
2023/07/11 17:41:43;;;;;;;4.00;3.42;;;33.60;99.90;;;;;;8345699;28;20185;-69
2023/07/11 17:45:45;;;;;;;6.07;3.30;;;34.10;99.90;;;;;;8349429;28;20304;-69
2023/07/11 17:49:47;;;;;;;4.82;3.58;;;34.30;99.90;;;;;;8362476;28;20181;-69
2023/07/11 17:53:48;;;;;;;4.10;3.38;;;34.30;99.90;;;;;;8367220;28;20192;-68
2023/07/11 17:57:49;;;;;;;4.78;3.40;;;34.40;99.90;;;;;;8347755;28;20195;-68
2023/07/11 18:01:50;;;;;;;7.28;3.40;;;34.50;99.90;;;;;;8347964;28;20192;-67
2023/07/11 18:05:52;;;;;;;4.88;3.05;;;34.50;99.90;;;;;;8362719;28;20260;-69
2023/07/11 18:09:53;;;;;;;4.63;3.53;;;34.50;99.90;;;;;;8348489;28;20222;-68
2023/07/11 18:13:54;;;;;;;3.40;3.05;;;34.20;99.90;;;;;;8345735;28;20297;-68
2023/07/11 18:18:01;;;;;;;3.88;3.33;;;34.00;99.90;;;;;;8350157;28;20193;-67
2023/07/11 18:22:02;;;;;;;4.47;3.28;;;33.80;99.90;;;;;;8365888;28;20215;-68
2023/07/11 18:26:12;;;;;;;5.05;3.47;;;33.40;99.90;;;;;;8344848;28;20217;-65
2023/07/11 18:30:16;;;;;;;5.10;3.45;;;32.90;99.90;;;;;;8352381;28;20178;-67
2023/07/11 18:34:17;;;;;;;3.78;3.20;;;32.50;99.90;;;;;;8361525;28;20190;-67
2023/07/11 18:38:26;;;;;;;4.30;3.50;;;32.10;99.90;;;;;;8346551;28;20181;-67
2023/07/11 18:42:27;;;;;;;4.93;3.10;;;31.60;99.90;;;;;;8360274;28;20190;-69
2023/07/11 18:46:28;;;;;;;4.53;3.45;;;31.10;99.90;;;;;;8346002;28;20219;-67
2023/07/11 18:50:34;;;;;;;3.55;2.90;;;30.70;99.90;;;;;;8360537;28;20212;-67
2023/07/11 18:54:35;;;;;;;3.38;2.88;;;30.00;99.90;;;;;;8349333;28;20185;-67
2023/07/11 18:58:36;;;;;;;3.10;2.80;;;29.30;99.90;;;;;;8364410;28;20242;-67
2023/07/11 19:02:37;;;;;;;3.47;3.17;;;28.50;99.90;;;;;;8346568;28;20198;-68
2023/07/11 19:06:38;;;;;;;4.25;3.40;;;27.70;99.90;;;;;;8359645;28;20205;-67
2023/07/11 19:10:39;;;;;;;8.18;3.90;;;27.10;99.90;;;;;;8353400;28;20181;-66
2023/07/11 19:14:40;;;;;;;4.57;2.95;;;26.40;99.90;;;;;;8352536;28;20196;-66
2023/07/11 19:18:41;;;;;;;4.50;3.30;;;25.90;99.90;;;;;;8352108;28;20181;-67
2023/07/11 19:22:43;;;;;;;5.70;3.50;;;25.40;99.90;;;;;;8350941;28;20177;-68
2023/07/11 19:26:45;;;;;;;3.50;3.00;;;25.00;99.90;;;;;;8363079;28;20251;-67
2023/07/11 19:30:56;;;;;;;4.47;3.10;;;24.70;99.90;;;;;;8363534;28;20213;-69
2023/07/11 19:34:57;;;;;;;4.87;3.53;;;24.40;99.90;;;;;;8346295;28;20215;-64
2023/07/11 19:38:58;;;;;;;4.10;3.30;;;24.10;99.90;;;;;;8364268;28;20276;-64
2023/07/11 19:43:02;;;;;;;4.33;3.40;;;23.90;99.90;;;;;;8360247;28;20185;-64
2023/07/11 19:47:05;;;;;;;5.10;3.67;;;23.70;99.90;;;;;;8350363;28;20204;-65
2023/07/11 19:51:13;;;;;;;4.10;3.10;;;23.50;99.90;;;;;;8362317;28;20186;-66
2023/07/11 19:55:14;;;;;;;12.20;4.47;;;23.30;99.90;;;;;;8360937;28;20193;-67
2023/07/11 19:59:15;;;;;;;5.90;3.70;;;23.10;99.90;;;;;;8364781;28;20186;-65
2023/07/11 20:03:16;;;;;;;4.90;3.40;;;22.90;99.90;;;;;;8362103;28;20240;-65
2023/07/11 20:07:17;;;;;;;5.77;3.50;;;22.80;99.90;;;;;;8370277;28;20209;-65
2023/07/11 20:11:18;;;;;;;4.60;3.30;;;22.60;99.90;;;;;;8349119;28;20236;-64
2023/07/11 20:15:19;;;;;;;6.37;3.47;;;22.40;99.90;;;;;;8351541;28;20196;-63
2023/07/11 20:19:20;;;;;;;4.37;3.37;;;22.30;99.90;;;;;;8353341;28;20207;-64
2023/07/11 20:23:21;;;;;;;5.47;3.37;;;22.10;99.90;;;;;;8357570;28;20185;-64
2023/07/11 20:27:28;;;;;;;3.73;2.90;;;22.00;99.90;;;;;;8353123;28;20228;-64
2023/07/11 20:31:29;;;;;;;3.43;2.87;;;21.80;99.90;;;;;;8354512;28;20181;-64
2023/07/11 20:35:31;;;;;;;4.73;2.80;;;21.70;99.90;;;;;;8364527;28;20190;-64
2023/07/11 20:39:32;;;;;;;3.07;2.63;;;21.60;99.90;;;;;;8348647;28;20188;-64
2023/07/11 20:43:33;;;;;;;4.70;3.40;;;21.50;99.90;;;;;;8365720;28;20193;-64
2023/07/11 20:47:34;;;;;;;4.00;2.77;;;21.50;99.90;;;;;;8353607;28;20181;-63
2023/07/11 20:51:35;;;;;;;5.33;3.33;;;21.40;99.90;;;;;;8351264;28;20264;-65
2023/07/11 20:55:36;;;;;;;4.60;2.80;;;21.30;99.90;;;;;;8354906;28;20189;-64
2023/07/11 20:59:37;;;;;;;3.77;2.90;;;21.20;99.90;;;;;;8364274;28;20185;-64
2023/07/11 21:03:39;;;;;;;3.77;2.90;;;21.20;99.90;;;;;;8369743;28;20197;-63
2023/07/11 21:07:41;;;;;;;4.73;3.27;;;21.10;99.90;;;;;;8353808;28;20182;-65
2023/07/11 21:11:47;;;;;;;4.23;2.90;;;21.10;99.90;;;;;;8353316;28;20184;-64
2023/07/11 21:15:49;;;;;;;7.47;3.20;;;21.00;99.90;;;;;;8353622;28;20188;-63